Time;durP1;ratioP1;P1;durP2;ratioP2;P2;SDS_P1;SDS_P2;PMS_P1;PMS_P2;Temp;Humidity;BMP_temperature;BMP_pressure;BME280_temperature;BME280_humidity;BME280_pressure;Samples;Min_cycle;Max_cycle;Signal;HPM_P1;HPM_P2
2022/11/12 03:09:09;;;;;;;16.17;12.35;;;;;;;6.85;76.47;101914.81;1793768;79;20940;-74
2022/11/12 03:11:55;;;;;;;17.23;12.90;;;;;;;6.88;76.35;101917.89;1748356;80;20991;-74
2022/11/12 03:14:41;;;;;;;16.50;13.00;;;;;;;6.94;76.17;101920.23;1808206;79;21414;-74
2022/11/12 03:17:27;;;;;;;16.62;12.95;;;;;;;6.99;76.04;101919.14;1807765;79;21546;-72
2022/11/12 03:20:12;;;;;;;18.23;13.03;;;;;;;7.02;75.84;101912.92;1837113;76;21042;-73
2022/11/12 03:23:04;;;;;;;17.87;13.30;;;;;;;7.04;75.73;101920.19;1848123;76;22150;-74
2022/11/12 03:25:50;;;;;;;16.40;13.48;;;;;;;7.04;75.68;101912.70;1848432;76;21160;-74
2022/11/12 03:28:35;;;;;;;17.62;13.40;;;;;;;7.08;75.67;101909.98;1848437;76;21008;-74
2022/11/12 03:31:20;;;;;;;16.27;13.00;;;;;;;7.15;75.53;101916.12;1817769;76;21012;-74
2022/11/12 03:34:05;;;;;;;16.25;12.45;;;;;;;7.19;75.39;101921.34;1813166;79;20992;-73
2022/11/12 03:36:50;;;;;;;17.02;12.53;;;;;;;7.18;75.20;101922.38;1807868;77;21849;-75
2022/11/12 03:39:35;;;;;;;17.23;13.48;;;;;;;7.23;75.18;101919.10;1770767;81;20944;-74
2022/11/12 03:42:20;;;;;;;17.00;13.20;;;;;;;7.22;75.08;101920.94;1775870;79;21035;-73
2022/11/12 03:45:06;;;;;;;19.45;13.85;;;;;;;7.24;75.07;101918.91;1803058;79;21043;-74
2022/11/12 03:47:54;;;;;;;18.00;14.13;;;;;;;7.23;75.24;101918.59;1831915;76;21537;-74
2022/11/12 03:50:41;;;;;;;18.25;13.68;;;;;;;7.29;75.33;101916.45;1845229;77;21242;-74
2022/11/12 03:53:26;;;;;;;19.70;14.00;;;;;;;7.36;75.33;101907.16;1846043;76;21097;-74
2022/11/12 03:56:12;;;;;;;17.27;13.88;;;;;;;7.41;75.27;101902.59;1806802;77;21031;-74
2022/11/12 03:58:57;;;;;;;20.43;14.55;;;;;;;7.45;75.10;101911.79;1771140;80;21023;-74
2022/11/12 04:01:43;;;;;;;18.60;13.75;;;;;;;7.45;75.12;101907.80;1798144;77;20960;-73
2022/11/12 04:08:34;;;;;;;16.37;13.78;;;;;;;7.49;75.21;101909.84;1813355;77;20991;-74
2022/11/12 04:10:20;;;;;;;19.40;14.60;;;;;;;7.61;75.23;101914.05;1817131;77;21033;-74
2022/11/12 04:22:26;;;;;;;17.05;13.50;;;;;;;7.64;74.81;101918.16;1809380;78;20988;-73
2022/11/12 04:28:16;;;;;;;16.73;13.35;;;;;;;7.60;74.44;101912.42;1814955;77;21043;-73
2022/11/12 04:32:09;;;;;;;21.57;14.80;;;;;;;7.58;74.32;101899.84;1814668;78;20991;-73
2022/11/12 04:35:58;;;;;;;16.85;14.10;;;;;;;7.61;74.23;101902.09;1831972;75;21202;-73
2022/11/12 04:38:45;;;;;;;18.10;13.98;;;;;;;7.63;74.09;101905.34;1829350;77;21136;-73
2022/11/12 04:47:40;;;;;;;16.80;14.13;;;;;;;7.67;73.85;101911.09;1848015;77;20980;-74
2022/11/12 04:50:25;;;;;;;20.77;15.32;;;;;;;7.70;73.95;101908.84;1848434;76;21126;-74
2022/11/12 04:53:10;;;;;;;18.10;14.38;;;;;;;7.78;74.00;101915.79;1837647;77;21074;-73
2022/11/12 04:55:57;;;;;;;18.32;14.47;;;;;;;7.82;73.96;101910.88;1814650;78;21481;-74
2022/11/12 04:58:42;;;;;;;17.05;13.08;;;;;;;7.81;73.95;101914.57;1815143;78;21582;-73
2022/11/12 05:01:27;;;;;;;18.77;14.28;;;;;;;7.83;73.90;101913.34;1814850;78;21082;-73
2022/11/12 05:04:11;;;;;;;17.30;14.07;;;;;;;7.79;73.85;101909.44;1828005;76;21151;-74
2022/11/12 05:06:57;;;;;;;18.02;13.48;;;;;;;7.83;74.01;101897.39;1834383;77;21035;-75
2022/11/12 05:09:42;;;;;;;20.00;14.33;;;;;;;7.92;74.12;101880.69;1834703;76;20972;-74
2022/11/12 05:12:27;;;;;;;17.02;13.58;;;;;;;8.01;74.19;101876.79;1834428;76;20984;-75
2022/11/12 05:15:11;;;;;;;17.40;13.65;;;;;;;8.12;74.25;101888.12;1834637;76;21466;-74
2022/11/12 05:17:56;;;;;;;18.15;13.88;;;;;;;8.21;74.22;101895.38;1834451;76;21826;-74
2022/11/12 05:20:43;;;;;;;18.73;14.87;;;;;;;8.29;74.08;101890.33;1817315;77;21037;-74
2022/11/12 05:23:28;;;;;;;18.60;14.10;;;;;;;8.33;74.04;101888.39;1814733;77;21565;-73
2022/11/12 05:26:13;;;;;;;18.42;14.75;;;;;;;8.38;74.07;101893.11;1836483;77;21561;-74
2022/11/12 05:29:00;;;;;;;21.55;15.03;;;;;;;8.45;74.18;101896.05;1815072;77;20952;-73
2022/11/12 05:31:44;;;;;;;18.85;14.40;;;;;;;8.57;74.22;101908.20;1813466;77;21617;-75
2022/11/12 05:34:30;;;;;;;20.85;15.32;;;;;;;8.66;74.25;101908.28;1817051;77;21024;-74
2022/11/12 05:37:15;;;;;;;16.95;13.70;;;;;;;8.76;74.24;101905.69;1842237;76;21058;-74
2022/11/12 05:40:00;;;;;;;21.23;15.00;;;;;;;8.85;74.21;101918.56;1843682;77;21063;-74
2022/11/12 05:42:45;;;;;;;21.62;15.08;;;;;;;8.95;74.17;101918.11;1847448;76;20960;-75
2022/11/12 05:45:30;;;;;;;20.95;15.05;;;;;;;9.06;74.12;101919.28;1826021;77;21672;-74
2022/11/12 05:48:15;;;;;;;18.82;14.78;;;;;;;9.15;74.03;101921.48;1780469;79;21039;-75
2022/11/12 05:50:59;;;;;;;19.17;13.88;;;;;;;9.22;73.89;101920.63;1794902;79;21058;-75
2022/11/12 05:53:44;;;;;;;17.67;13.20;;;;;;;9.26;73.70;101921.30;1835336;76;21027;-74
2022/11/12 05:56:30;;;;;;;17.52;13.85;;;;;;;9.29;73.53;101925.41;1834485;76;21090;-74
2022/11/12 05:59:14;;;;;;;17.55;13.58;;;;;;;9.25;73.31;101918.88;1834749;76;21223;-74
2022/11/12 06:02:00;;;;;;;18.70;13.40;;;;;;;9.23;73.25;101923.59;1834253;76;20976;-73
2022/11/12 06:04:45;;;;;;;17.35;13.75;;;;;;;9.29;73.30;101929.41;1817871;77;21054;-75
2022/11/12 06:07:30;;;;;;;17.75;13.48;;;;;;;9.39;73.28;101929.74;1814726;77;20995;-74
2022/11/12 06:10:16;;;;;;;17.73;13.90;;;;;;;9.47;73.21;101920.13;1817321;76;21070;-72
2022/11/12 06:13:01;;;;;;;18.15;14.13;;;;;;;9.56;73.24;101927.36;1814867;77;21247;-73
2022/11/12 06:15:47;;;;;;;17.27;13.55;;;;;;;9.64;73.15;101924.45;1814775;77;20944;-73
2022/11/12 06:18:32;;;;;;;17.37;14.03;;;;;;;9.71;73.07;101921.73;1837712;77;20941;-73
2022/11/12 06:21:23;;;;;;;17.75;14.20;;;;;;;9.78;72.99;101924.63;1847198;76;21027;-73
2022/11/12 06:24:09;;;;;;;16.12;13.40;;;;;;;9.86;72.93;101920.86;1814819;78;21062;-74
2022/11/12 06:26:53;;;;;;;19.50;14.50;;;;;;;9.92;72.93;101921.33;1814549;79;22213;-73
2022/11/12 06:29:38;;;;;;;20.25;15.15;;;;;;;9.99;72.84;101911.41;1814956;77;21490;-74
2022/11/12 06:32:24;;;;;;;19.57;15.08;;;;;;;10.03;72.74;101901.91;1814802;77;20992;-73
2022/11/12 06:35:10;;;;;;;17.92;14.15;;;;;;;10.10;72.70;101901.84;1815107;77;21106;-74
2022/11/12 06:37:55;;;;;;;20.75;14.73;;;;;;;10.16;72.57;101901.49;1814779;77;21542;-74
2022/11/12 06:40:41;;;;;;;18.45;14.45;;;;;;;10.21;72.51;101892.31;1817382;77;21474;-74
2022/11/12 06:43:28;;;;;;;18.75;15.03;;;;;;;10.28;72.42;101894.42;1815003;77;20983;-74
2022/11/12 06:46:15;;;;;;;21.12;15.03;;;;;;;10.36;72.32;101897.30;1814813;77;21090;-73
2022/11/12 06:49:01;;;;;;;19.77;14.55;;;;;;;10.43;72.25;101904.23;1814721;77;20944;-73
2022/11/12 06:51:46;;;;;;;18.92;15.18;;;;;;;10.49;72.05;101913.19;1814719;78;20995;-74
2022/11/12 06:54:33;;;;;;;22.67;16.23;;;;;;;10.54;71.94;101913.34;1773132;78;20924;-74
2022/11/12 06:57:18;;;;;;;16.12;12.58;;;;;;;10.62;71.72;101906.88;1814937;77;20984;-74
2022/11/12 07:00:04;;;;;;;19.30;15.45;;;;;;;10.67;71.38;101908.37;1815175;77;21070;-75
2022/11/12 07:02:49;;;;;;;18.23;15.30;;;;;;;10.64;71.13;101903.47;1816891;77;21089;-75
2022/11/12 07:05:37;;;;;;;21.25;15.32;;;;;;;10.67;71.05;101902.50;1815368;77;21051;-75
2022/11/12 07:08:22;;;;;;;19.75;15.25;;;;;;;10.71;70.88;101890.84;1814904;77;21156;-75
2022/11/12 07:11:08;;;;;;;22.00;16.50;;;;;;;10.70;70.75;101882.02;1823077;77;20992;-75
2022/11/12 07:13:53;;;;;;;23.30;16.05;;;;;;;10.70;70.63;101879.86;1848534;77;21015;-73
2022/11/12 07:16:37;;;;;;;23.47;16.65;;;;;;;10.72;70.66;101875.09;1832532;77;20991;-74
2022/11/12 07:19:22;;;;;;;20.95;15.68;;;;;;;10.74;70.67;101865.81;1814910;79;21085;-74
2022/11/12 07:22:07;;;;;;;22.32;16.73;;;;;;;10.80;70.82;101862.24;1814871;77;21267;-73
2022/11/12 07:24:51;;;;;;;21.30;16.40;;;;;;;10.87;70.71;101861.34;1815092;77;21027;-72
2022/11/12 07:27:36;;;;;;;23.62;17.12;;;;;;;10.91;70.69;101864.66;1814903;77;21023;-72
2022/11/12 07:30:22;;;;;;;24.87;17.75;;;;;;;10.97;70.61;101867.77;1815189;77;20960;-74
2022/11/12 07:33:06;;;;;;;25.65;17.25;;;;;;;11.03;70.53;101866.05;1815237;79;21054;-74
2022/11/12 07:35:59;;;;;;;24.37;17.17;;;;;;;11.16;70.67;101862.38;1815032;78;21161;-73
2022/11/12 07:38:44;;;;;;;;;;;;;;;11.31;70.60;101864.59;1817797;79;21308;-72
2022/11/12 07:41:29;;;;;;;21.50;16.95;;;;;;;11.41;70.23;101860.30;1814963;79;20158;-75
2022/11/12 07:44:14;;;;;;;24.70;17.80;;;;;;;11.45;69.92;101853.47;1815147;77;21062;-73
2022/11/12 07:46:59;;;;;;;23.52;17.23;;;;;;;11.53;69.78;101856.84;1814857;79;20952;-75
2022/11/12 07:49:43;;;;;;;25.43;17.52;;;;;;;11.62;69.74;101855.47;1815266;78;21093;-74
2022/11/12 07:52:32;;;;;;;21.82;16.90;;;;;;;11.71;69.49;101852.71;1814951;79;20928;-74
2022/11/12 07:55:16;;;;;;;26.37;18.73;;;;;;;11.78;69.25;101846.74;1815245;78;21498;-73
2022/11/12 07:58:01;;;;;;;25.40;18.87;;;;;;;11.87;69.11;101853.38;1814885;77;21155;-73
2022/11/12 08:00:46;;;;;;;25.53;17.90;;;;;;;11.97;68.90;101857.63;1815134;77;21441;-73
2022/11/12 08:03:31;;;;;;;24.50;17.67;;;;;;;12.05;68.34;101854.32;1819337;76;21254;-71
2022/11/12 14:36:21;;;;;;;15.23;11.30;;;;;;;14.54;58.38;101691.02;1851217;77;22624;-77
2022/11/12 14:39:09;;;;;;;20.23;11.13;;;;;;;14.53;57.69;101694.75;1824848;78;20962;-77
2022/11/12 14:41:56;;;;;;;15.33;11.50;;;;;;;14.52;57.25;101697.70;1810613;78;21990;-77
2022/11/12 14:44:41;;;;;;;17.37;10.77;;;;;;;14.52;57.25;101697.70;1821235;78;21416;-78
2022/11/12 14:47:26;;;;;;;15.10;10.13;;;;;;;14.52;57.10;101699.86;1824955;78;21868;-76
2022/11/12 14:50:30;;;;;;;17.83;11.33;;;;;;;14.59;56.98;101709.05;1824809;78;21474;-77
2022/11/12 14:53:34;;;;;;;16.97;11.07;;;;;;;14.75;56.46;101707.31;1798648;78;21250;-77
2022/11/12 14:56:31;;;;;;;14.87;11.20;;;;;;;14.75;56.27;101708.13;1824870;78;21189;-77
2022/11/12 14:59:17;;;;;;;14.80;11.07;;;;;;;14.80;56.50;101702.50;1823525;78;21968;-77
2022/11/12 15:02:09;;;;;;;20.87;12.90;;;;;;;14.80;56.50;101702.50;1824753;78;21932;-76
2022/11/12 15:05:01;;;;;;;17.97;12.87;;;;;;;14.78;56.20;101704.92;1798202;78;21378;-76
2022/11/12 15:08:06;;;;;;;18.00;13.63;;;;;;;14.73;56.16;101700.02;1824978;78;21393;-78
2022/11/12 15:10:53;;;;;;;16.47;12.80;;;;;;;14.68;56.32;101697.31;1824620;78;21858;-81
2022/11/12 15:13:39;;;;;;;15.73;11.97;;;;;;;14.67;56.37;101692.44;1824752;78;21312;-77
2022/11/12 15:16:33;;;;;;;16.00;12.67;;;;;;;14.61;56.58;101706.09;1823653;78;21321;-78
2022/11/12 15:19:25;;;;;;;16.77;13.37;;;;;;;14.61;56.58;101706.09;1820721;78;21402;-77
2022/11/12 15:22:19;;;;;;;18.57;13.40;;;;;;;14.59;56.55;101715.78;1792933;80;21307;-77
2022/11/12 15:25:29;;;;;;;17.33;13.40;;;;;;;14.53;56.91;101693.94;1791995;80;21462;-74
2022/11/12 15:28:23;;;;;;;17.20;13.40;;;;;;;14.53;56.78;101700.66;1792428;80;21450;-77
2022/11/12 15:31:18;;;;;;;16.70;11.63;;;;;;;14.50;56.85;101704.66;1792193;80;21463;-74
2022/11/12 15:34:44;;;;;;;16.50;12.63;;;;;;;14.38;56.80;101708.03;1821777;78;21175;-76
2022/11/12 15:37:32;;;;;;;13.43;11.27;;;;;;;14.39;56.93;101694.86;1804440;79;21274;-76
2022/11/12 15:40:20;;;;;;;14.80;11.70;;;;;;;14.34;57.12;101702.06;1749503;82;21272;-76
2022/11/12 15:43:24;;;;;;;16.63;13.03;;;;;;;14.33;57.24;101699.10;1749736;82;21166;-77
2022/11/12 15:46:18;;;;;;;13.47;10.40;;;;;;;14.34;57.38;101692.11;1749523;81;21403;-77
2022/11/12 15:49:00;;;;;;;11.68;9.03;;;;;;;14.34;57.35;101692.66;1748742;81;21321;-76
2022/11/12 15:51:45;;;;;;;12.77;9.93;;;;;;;14.28;57.56;101702.53;1749743;82;21044;-77
2022/11/12 15:54:32;;;;;;;12.27;8.87;;;;;;;14.32;57.58;101683.52;1749453;81;21852;-77
2022/11/12 15:57:26;;;;;;;11.17;7.40;;;;;;;14.28;57.73;101683.22;1749808;82;21264;-77
2022/11/12 16:00:18;;;;;;;9.10;6.87;;;;;;;14.28;57.75;101684.55;1749587;81;21253;-77
2022/11/12 16:03:09;;;;;;;;;;;;;;;14.20;57.99;101680.97;1752295;82;21228;-76
2022/11/12 16:05:54;;;;;;;9.47;6.73;;;;;;;14.20;58.09;101687.69;1746071;82;20149;-77
2022/11/12 16:08:39;;;;;;;10.37;7.90;;;;;;;14.18;58.17;101680.94;1752507;82;21328;-76
2022/11/12 16:11:37;;;;;;;8.57;6.90;;;;;;;14.20;58.28;101685.53;1752307;81;21231;-76
2022/11/12 16:14:22;;;;;;;9.47;6.57;;;;;;;14.15;58.43;101680.94;1752272;82;21343;-77
2022/11/12 16:17:11;;;;;;;10.07;7.27;;;;;;;14.14;58.43;101667.20;1745782;82;21664;-75
2022/11/12 16:19:56;;;;;;;11.67;7.87;;;;;;;14.14;58.57;101667.73;1722197;82;21822;-75
2022/11/12 16:22:41;;;;;;;8.53;6.80;;;;;;;14.17;58.49;101651.11;1722522;82;21334;-75
2022/11/12 16:25:29;;;;;;;9.50;7.30;;;;;;;14.19;58.54;101669.14;1721996;83;21193;-76
2022/11/12 16:28:16;;;;;;;9.23;7.03;;;;;;;14.16;58.74;101672.34;1722490;83;21252;-76
2022/11/12 16:31:01;;;;;;;9.73;6.93;;;;;;;14.13;58.83;101672.84;1722189;83;21755;-76
2022/11/12 16:33:46;;;;;;;8.40;6.87;;;;;;;14.15;58.94;101682.27;1717639;83;21341;-77
2022/11/12 16:36:32;;;;;;;9.13;7.00;;;;;;;14.15;58.95;101674.22;1717427;83;21377;-77
2022/11/12 16:39:18;;;;;;;9.97;7.10;;;;;;;14.13;59.10;101687.08;1717306;83;21345;-76
2022/11/12 16:42:03;;;;;;;10.13;6.90;;;;;;;14.10;59.34;101676.03;1718612;82;21254;-77
2022/11/12 16:44:49;;;;;;;10.10;7.13;;;;;;;14.06;59.50;101682.45;1727761;83;21240;-76
2022/11/12 16:47:39;;;;;;;10.33;6.30;;;;;;;14.12;59.50;101680.63;1728233;83;21294;-78
2022/11/12 16:50:26;;;;;;;9.67;7.10;;;;;;;14.08;59.62;101681.64;1709003;83;21985;-75
2022/11/12 16:53:11;;;;;;;10.27;7.27;;;;;;;14.03;60.00;101697.72;1728095;82;21799;-76
2022/11/12 16:55:56;;;;;;;8.93;6.80;;;;;;;14.04;60.07;101681.34;1727769;83;21390;-76
2022/11/12 16:58:41;;;;;;;9.67;6.83;;;;;;;14.00;60.31;101687.48;1729339;81;21337;-75
2022/11/12 17:01:29;;;;;;;12.23;7.70;;;;;;;14.00;60.36;101679.42;1728063;82;21252;-75
2022/11/12 17:04:14;;;;;;;9.20;6.93;;;;;;;14.01;60.52;101690.44;1728085;83;21377;-76
2022/11/12 17:06:59;;;;;;;9.50;7.17;;;;;;;14.01;60.66;101687.75;1728121;82;21198;-77
2022/11/12 17:09:45;;;;;;;9.33;6.87;;;;;;;13.99;60.75;101688.55;1727985;83;21790;-76
2022/11/12 17:12:30;;;;;;;10.13;7.60;;;;;;;14.00;60.84;101698.22;1728216;82;21324;-76
2022/11/12 17:15:17;;;;;;;9.87;7.73;;;;;;;13.97;61.12;101697.38;1729923;81;21610;-75
2022/11/12 17:18:02;;;;;;;10.20;7.50;;;;;;;13.94;61.29;101685.80;1758236;81;21772;-76
2022/11/12 17:20:47;;;;;;;9.70;7.60;;;;;;;13.96;61.33;101689.05;1735807;81;21090;-77
2022/11/12 17:23:32;;;;;;;11.93;8.03;;;;;;;13.89;61.50;101685.22;1728165;82;21279;-77
2022/11/12 17:26:19;;;;;;;9.70;6.93;;;;;;;13.88;61.62;101688.94;1727884;81;21367;-76
2022/11/12 17:29:04;;;;;;;11.87;7.97;;;;;;;13.93;61.71;101681.49;1728057;83;21351;-76
2022/11/12 17:31:49;;;;;;;11.00;7.83;;;;;;;13.95;61.78;101673.98;1729070;81;21219;-75
2022/11/12 17:34:34;;;;;;;11.60;7.93;;;;;;;13.90;61.98;101676.63;1727847;83;21268;-77
2022/11/12 17:37:19;;;;;;;11.10;8.40;;;;;;;13.90;62.12;101674.74;1739352;81;21301;-76
2022/11/12 17:40:07;;;;;;;11.17;7.93;;;;;;;13.88;62.26;101688.94;1732357;81;21181;-76
2022/11/12 17:42:52;;;;;;;10.93;7.77;;;;;;;13.85;62.41;101693.47;1754151;81;21439;-75
2022/11/12 17:45:40;;;;;;;11.40;8.00;;;;;;;13.90;62.36;101698.11;1731205;81;21529;-75
2022/11/12 17:48:26;;;;;;;11.25;8.45;;;;;;;13.88;62.42;101683.58;1589437;81;10000421;-76
2022/11/12 17:51:14;;;;;;;12.57;8.57;;;;;;;13.88;62.51;101692.97;1615538;81;10000223;-77
2022/11/12 17:53:58;;;;;;;10.83;7.97;;;;;;;13.89;62.58;101693.27;1738164;81;21114;-77
2022/11/12 17:56:43;;;;;;;11.77;8.60;;;;;;;13.91;62.65;101699.72;1755009;81;21287;-76
2022/11/12 17:59:29;;;;;;;11.93;8.47;;;;;;;13.90;62.72;101692.20;1727631;81;21337;-79
2022/11/12 18:02:14;;;;;;;11.93;8.27;;;;;;;13.91;62.82;101702.41;1748666;81;21311;-78
2022/11/12 18:05:00;;;;;;;13.03;9.00;;;;;;;13.89;62.93;101707.23;1751833;80;21272;-74
2022/11/12 18:21:55;;;;;;;12.87;9.23;;;;;;;14.27;63.04;101700.38;1749257;81;22762;-92
2022/11/12 18:24:40;;;;;;;10.80;8.27;;;;;;;14.19;62.86;101698.70;1736984;81;21129;-89
2022/11/12 18:27:26;;;;;;;10.97;8.17;;;;;;;14.15;62.97;101698.91;1743623;81;21454;-91
2022/11/12 18:30:11;;;;;;;11.33;8.50;;;;;;;14.12;63.08;101694.06;1726937;81;21442;-90
2022/11/12 18:32:58;;;;;;;12.77;9.13;;;;;;;14.07;63.19;101701.52;1738346;82;21473;-91
2022/11/12 18:35:44;;;;;;;11.73;8.73;;;;;;;14.06;63.34;101701.25;1756980;81;21369;-89
2022/11/12 18:38:32;;;;;;;12.87;8.67;;;;;;;14.03;63.63;101704.44;1756556;79;21313;-88
2022/11/12 18:41:27;;;;;;;12.63;8.73;;;;;;;13.97;63.87;101698.72;1756286;79;21137;-89
2022/11/12 18:44:12;;;;;;;12.57;8.43;;;;;;;13.94;64.07;101691.16;1721628;81;21203;-89
2022/11/12 18:47:00;;;;;;;13.37;8.40;;;;;;;13.90;64.36;101695.42;1705154;84;21388;-91
2022/11/12 18:49:48;;;;;;;13.70;8.97;;;;;;;13.84;65.08;101690.52;1699757;79;21237;-91
2022/11/12 18:52:39;;;;;;;12.53;8.70;;;;;;;13.84;65.08;101690.52;1756442;79;21202;-91
2022/11/12 18:55:43;;;;;;;11.87;8.37;;;;;;;13.82;64.90;101696.16;1733023;79;21270;-93
2022/11/12 18:58:30;;;;;;;11.43;8.43;;;;;;;13.77;65.27;101694.73;1758479;80;79363;-72
2022/11/12 19:01:19;;;;;;;11.80;8.23;;;;;;;13.67;65.62;101694.61;1777110;80;21343;-71
2022/11/12 19:04:09;;;;;;;11.37;8.57;;;;;;;13.66;65.81;101689.51;1774621;79;21764;-71
2022/11/12 19:06:51;;;;;;;13.10;9.33;;;;;;;13.65;66.01;101686.52;1778925;80;21398;-72
2022/11/12 19:09:37;;;;;;;12.73;8.97;;;;;;;13.60;66.24;101691.30;1776995;80;21839;-72
2022/11/12 19:12:22;;;;;;;15.27;9.47;;;;;;;13.61;66.40;101687.55;1739764;79;21790;-72
2022/11/12 19:15:10;;;;;;;10.67;8.17;;;;;;;13.60;66.52;101697.48;1755898;79;21289;-72
2022/11/12 19:17:55;;;;;;;14.57;9.53;;;;;;;13.59;66.74;101695.87;1760447;80;21322;-70
2022/11/12 19:20:41;;;;;;;12.90;8.80;;;;;;;13.58;66.87;101696.10;1738965;79;21261;-71
2022/11/12 19:23:27;;;;;;;14.30;8.40;;;;;;;13.58;67.04;101690.73;1744570;79;21261;-72
2022/11/12 19:26:15;;;;;;;12.23;9.07;;;;;;;13.57;67.25;101706.56;1755414;79;21330;-72
2022/11/12 19:29:00;;;;;;;14.93;8.93;;;;;;;13.55;67.38;101704.11;1778057;79;21181;-71
2022/11/12 19:31:45;;;;;;;12.93;8.83;;;;;;;13.51;67.75;101705.67;1769510;80;21321;-72
2022/11/12 19:34:30;;;;;;;11.20;8.40;;;;;;;13.52;67.83;101705.14;1762489;79;21218;-72
2022/11/12 19:37:15;;;;;;;11.77;8.90;;;;;;;13.52;68.02;101705.98;1758684;80;21292;-72
2022/11/12 19:40:00;;;;;;;14.17;9.80;;;;;;;13.47;68.27;101704.55;1704409;84;21273;-71
2022/11/12 19:42:46;;;;;;;11.07;7.90;;;;;;;13.43;68.47;101699.95;1677295;83;21187;-72
2022/11/12 19:45:32;;;;;;;12.03;8.37;;;;;;;13.36;68.96;101710.32;1704506;84;21816;-71
2022/11/12 19:48:17;;;;;;;11.37;8.40;;;;;;;13.35;69.11;101706.53;1681066;81;21113;-72
2022/11/12 19:51:04;;;;;;;13.80;9.70;;;;;;;13.33;69.38;101711.34;1598663;81;10000141;-71
2022/11/12 19:53:49;;;;;;;12.37;9.23;;;;;;;13.26;69.66;101707.50;1724440;81;21142;-70
2022/11/12 19:56:36;;;;;;;13.20;9.43;;;;;;;13.23;69.83;101697.23;1710873;82;21802;-71
2022/11/12 19:59:21;;;;;;;12.17;8.50;;;;;;;13.25;69.97;101699.14;1733889;82;21382;-70
2022/11/12 20:02:13;;;;;;;12.20;8.97;;;;;;;13.23;70.15;101695.88;1734337;82;21244;-72
2022/11/12 20:04:58;;;;;;;12.70;8.83;;;;;;;13.21;70.38;101699.87;1730851;81;21347;-71
2022/11/12 20:07:43;;;;;;;12.73;9.10;;;;;;;13.20;70.50;101699.06;1727648;81;21122;-71
2022/11/12 20:10:27;;;;;;;11.30;8.60;;;;;;;13.20;70.64;101692.35;1712823;81;21370;-72
2022/11/12 20:13:13;;;;;;;12.87;9.60;;;;;;;13.16;70.87;101693.88;1733430;82;21431;-70
2022/11/12 20:15:58;;;;;;;12.60;9.47;;;;;;;13.13;71.00;101691.19;1722371;82;21870;-71
2022/11/12 20:18:44;;;;;;;12.83;8.93;;;;;;;13.12;71.17;101685.52;1727213;82;21361;-71
2022/11/12 20:21:29;;;;;;;13.40;9.53;;;;;;;13.14;71.25;101687.97;1728556;82;21830;-71
2022/11/12 20:24:14;;;;;;;12.47;9.10;;;;;;;13.12;71.33;101669.95;1718924;82;21278;-71
2022/11/12 20:26:59;;;;;;;13.50;9.97;;;;;;;13.14;71.39;101669.19;1711689;82;21437;-71
2022/11/12 20:29:43;;;;;;;15.40;10.60;;;;;;;13.18;71.39;101672.19;1721427;82;21407;-71
2022/11/12 20:32:30;;;;;;;14.20;9.30;;;;;;;13.20;71.36;101667.40;1717906;82;21257;-71
2022/11/12 20:35:16;;;;;;;10.57;8.80;;;;;;;13.21;71.32;101680.55;1733420;82;21304;-70
2022/11/12 20:38:03;;;;;;;12.23;8.33;;;;;;;13.20;71.35;101676.79;1733667;82;21326;-70
2022/11/12 20:40:52;;;;;;;12.53;8.37;;;;;;;13.20;71.36;101670.08;1734249;81;21424;-70
2022/11/12 20:43:37;;;;;;;13.53;9.17;;;;;;;13.20;71.37;101670.89;1691970;81;21777;-70
2022/11/12 20:46:24;;;;;;;11.07;8.30;;;;;;;13.19;71.37;101665.22;1717313;81;21360;-71
2022/11/12 20:49:09;;;;;;;11.63;8.67;;;;;;;13.19;71.37;101669.25;1722629;82;21264;-69
2022/11/12 20:51:54;;;;;;;13.00;8.97;;;;;;;13.22;71.41;101666.07;1706519;84;21148;-71
2022/11/12 20:54:40;;;;;;;11.40;8.37;;;;;;;13.20;71.37;101658.81;1741571;81;21266;-72
2022/11/12 20:57:26;;;;;;;12.00;8.13;;;;;;;13.21;71.35;101659.09;1736028;82;21930;-72
2022/11/12 21:00:13;;;;;;;10.30;7.57;;;;;;;13.24;71.30;101649.23;1715121;82;21351;-72
2022/11/12 21:02:58;;;;;;;9.67;6.47;;;;;;;13.25;71.11;101651.39;1706465;84;21174;-70
2022/11/12 21:05:44;;;;;;;8.23;5.50;;;;;;;13.29;70.88;101653.34;1722246;81;21137;-70
2022/11/12 21:08:31;;;;;;;8.50;5.47;;;;;;;13.35;70.46;101652.86;1751857;81;21285;-70
2022/11/12 21:11:20;;;;;;;7.77;5.50;;;;;;;13.42;69.91;101652.67;1735656;82;21936;-71
2022/11/12 21:14:07;;;;;;;8.00;5.80;;;;;;;13.50;69.57;101649.58;1735772;82;21848;-71
2022/11/12 21:16:53;;;;;;;8.57;5.87;;;;;;;13.56;69.23;101653.41;1713671;81;21699;-71
2022/11/12 21:19:37;;;;;;;7.30;5.45;;;;;;;13.58;68.97;101647.25;1373689;81;10000529;-70
2022/11/12 21:22:22;;;;;;;8.90;6.80;;;;;;;13.58;68.81;101637.05;1728376;81;21065;-71
2022/11/12 21:25:07;;;;;;;10.10;6.53;;;;;;;13.56;68.82;101651.27;1742819;80;21247;-71
2022/11/12 21:27:53;;;;;;;8.40;6.03;;;;;;;13.53;68.79;101650.42;1730611;81;21324;-70
2022/11/12 21:30:39;;;;;;;8.23;6.10;;;;;;;13.50;68.87;101648.23;1732253;81;21328;-70
2022/11/12 21:33:24;;;;;;;7.33;5.80;;;;;;;13.49;68.64;101645.25;1710724;81;21375;-71
2022/11/12 21:36:09;;;;;;;8.23;5.00;;;;;;;13.49;68.42;101655.98;1713629;81;21261;-72
2022/11/12 21:38:54;;;;;;;5.97;4.50;;;;;;;13.55;67.98;101660.36;1724913;81;21897;-73
2022/11/12 21:41:39;;;;;;;7.47;5.10;;;;;;;13.61;67.53;101659.36;1724712;81;21358;-70
2022/11/12 21:44:24;;;;;;;9.77;6.27;;;;;;;13.67;67.15;101661.05;1724974;81;21415;-70
2022/11/12 21:47:09;;;;;;;7.30;5.43;;;;;;;13.75;66.99;101653.08;1731786;81;21330;-71
2022/11/12 21:49:55;;;;;;;8.37;5.70;;;;;;;13.77;66.84;101645.05;1729670;81;21227;-72
2022/11/12 21:52:41;;;;;;;6.73;4.80;;;;;;;13.78;66.65;101652.04;1711417;82;21288;-72
2022/11/12 21:55:26;;;;;;;7.33;5.03;;;;;;;13.81;66.56;101648.85;1703762;82;21818;-72
2022/11/12 21:58:11;;;;;;;6.03;4.73;;;;;;;13.83;66.32;101652.65;1733542;82;21296;-71
2022/11/12 22:01:20;;;;;;;7.03;4.70;;;;;;;13.80;66.00;101650.46;1736253;81;21245;-71
2022/11/12 22:04:06;;;;;;;6.00;4.30;;;;;;;13.78;65.57;101649.35;1725119;82;21264;-69
2022/11/12 22:06:51;;;;;;;5.63;4.17;;;;;;;13.80;65.17;101648.58;1728859;81;21361;-71
2022/11/12 22:09:37;;;;;;;5.20;3.90;;;;;;;13.82;64.96;101647.81;1712897;82;21358;-72
2022/11/12 22:12:22;;;;;;;5.93;3.87;;;;;;;13.84;64.79;101644.33;1714870;81;21397;-73
2022/11/12 22:15:07;;;;;;;6.87;4.03;;;;;;;13.87;64.66;101647.05;1724622;81;21219;-70
2022/11/12 22:17:53;;;;;;;7.30;4.60;;;;;;;13.86;64.44;101654.83;1724577;81;21410;-71
2022/11/12 22:20:38;;;;;;;5.90;3.97;;;;;;;13.90;64.34;101664.53;1719710;81;21390;-71
2022/11/12 22:23:24;;;;;;;6.40;4.10;;;;;;;13.91;64.19;101666.95;1725648;81;21236;-72
2022/11/12 22:26:11;;;;;;;5.43;4.10;;;;;;;13.91;64.08;101664.80;1718119;81;21334;-71
2022/11/12 22:28:57;;;;;;;5.73;3.83;;;;;;;13.90;63.98;101663.19;1714157;82;21228;-70
2022/11/12 22:31:43;;;;;;;6.23;4.30;;;;;;;13.89;63.96;101656.21;1725944;82;21333;-72
2022/11/12 22:34:28;;;;;;;5.93;4.00;;;;;;;13.88;63.83;101658.59;1726227;81;21300;-70
2022/11/12 22:37:13;;;;;;;5.63;4.20;;;;;;;13.88;63.82;101662.62;1715958;82;21336;-70
2022/11/12 22:39:57;;;;;;;6.43;4.37;;;;;;;13.89;63.77;101652.98;1715723;81;21316;-71
2022/11/12 22:42:42;;;;;;;5.93;3.80;;;;;;;13.90;63.74;101651.91;1723246;82;21464;-71
2022/11/12 22:45:27;;;;;;;7.03;4.40;;;;;;;13.90;63.71;101664.00;1707397;82;21815;-72
2022/11/12 22:48:12;;;;;;;5.80;3.90;;;;;;;13.90;63.72;101664.00;1694263;84;21880;-71
2022/11/12 22:51:01;;;;;;;5.50;3.53;;;;;;;13.91;63.67;101672.33;1731983;81;21841;-71
2022/11/12 22:53:46;;;;;;;5.63;4.10;;;;;;;13.90;63.66;101673.94;1733469;82;21204;-72
2022/11/12 22:56:34;;;;;;;7.13;4.53;;;;;;;13.89;63.62;101679.03;1715252;82;21419;-71
2022/11/12 22:59:19;;;;;;;5.77;4.00;;;;;;;13.87;63.56;101673.09;1731354;81;21364;-69
2022/11/12 23:02:06;;;;;;;6.30;3.80;;;;;;;13.83;63.59;101685.68;1733614;81;21352;-72